createdAt,value
2018-02-24T00:01:21.660Z,20.05
2018-02-24T00:03:55.141Z,25.48
2018-02-24T00:06:23.060Z,25.55
2018-02-24T00:08:51.009Z,25.50
2018-02-24T00:11:19.664Z,25.50
2018-02-24T00:13:47.708Z,26.80
2018-02-24T00:16:15.657Z,20.15
2018-02-24T00:18:43.632Z,21.83
2018-02-24T00:21:11.541Z,24.12
2018-02-24T00:23:39.483Z,20.42
2018-02-24T00:26:07.360Z,28.77
2018-02-24T00:28:35.326Z,20.83
2018-02-24T00:31:03.208Z,22.73
2018-02-24T00:33:33.196Z,25.80
2018-02-24T00:36:01.130Z,30.33
2018-02-24T00:38:29.055Z,23.10
2018-02-24T00:40:57.024Z,21.62
2018-02-24T00:43:24.946Z,26.45
2018-02-24T00:45:53.599Z,23.92
2018-02-24T00:48:21.564Z,22.67
2018-02-24T00:50:49.498Z,20.67
2018-02-24T00:53:17.480Z,18.27
2018-02-24T00:55:45.413Z,20.02
2018-02-24T00:58:13.403Z,21.20
2018-02-24T01:00:41.775Z,26.15
2018-02-24T01:03:09.944Z,22.25
2018-02-24T01:05:40.922Z,20.05
2018-02-24T01:08:08.935Z,24.80
2018-02-24T01:10:36.814Z,28.05
2018-02-24T01:13:04.727Z,28.23
2018-02-24T01:15:33.404Z,29.35
2018-02-24T01:18:01.336Z,24.52
2018-02-24T01:20:29.251Z,25.65
2018-02-24T01:23:01.181Z,23.87
2018-02-24T01:25:29.070Z,19.42
2018-02-24T01:27:57.044Z,22.87
2018-02-24T01:30:25.182Z,26.45
2018-02-24T01:32:53.170Z,26.33
2018-02-24T01:35:21.069Z,23.27
2018-02-24T01:37:49.021Z,24.10
2018-02-24T01:40:16.912Z,22.40
2018-02-24T01:42:46.923Z,22.65
2018-02-24T01:45:14.815Z,18.35
2018-02-24T01:47:42.744Z,18.95
2018-02-24T01:50:10.672Z,15.93
2018-02-24T01:52:39.821Z,21.08
2018-02-24T01:55:07.699Z,18.23
2018-02-24T01:57:35.652Z,18.83
2018-02-24T02:00:03.608Z,26.00
2018-02-24T02:02:31.568Z,18.27
2018-02-24T02:04:59.483Z,19.23
2018-02-24T02:07:27.463Z,18.52
2018-02-24T02:09:55.405Z,18.37
2018-02-24T02:12:23.404Z,18.65
2018-02-24T02:14:51.297Z,23.62
2018-02-24T02:17:19.297Z,23.60
2018-02-24T02:19:47.312Z,21.67
2018-02-24T02:22:15.276Z,21.55
2018-02-24T02:24:43.258Z,25.25
2018-02-24T02:27:11.243Z,23.98
2018-02-24T02:29:39.211Z,23.00
2018-02-24T02:32:07.259Z,27.15
2018-02-24T02:34:35.233Z,27.15
2018-02-24T02:37:03.238Z,26.48
2018-02-24T02:39:31.182Z,24.27
2018-02-24T02:41:59.066Z,20.83
2018-02-24T02:44:27.188Z,25.92
2018-02-24T02:46:55.131Z,24.80
2018-02-24T02:49:23.140Z,20.58
2018-02-24T02:51:51.060Z,21.27
2018-02-24T02:54:19.744Z,23.38
2018-02-24T02:56:48.468Z,21.62
2018-02-24T02:59:16.576Z,20.33
2018-02-24T03:01:44.606Z,20.70
2018-02-24T03:04:12.692Z,20.40
2018-02-24T03:06:40.767Z,21.05
2018-02-24T03:09:08.850Z,17.17
2018-02-24T03:11:36.815Z,21.65
2018-02-24T03:14:05.053Z,22.73
2018-02-24T03:16:33.885Z,17.80
2018-02-24T03:19:01.967Z,23.35
2018-02-24T03:21:30.004Z,19.90
2018-02-24T03:23:58.124Z,19.65
2018-02-24T03:26:26.224Z,19.98
2018-02-24T03:28:54.222Z,18.98
2018-02-24T03:31:22.372Z,22.23
2018-02-24T03:33:51.273Z,24.35
2018-02-24T03:36:20.031Z,20.83
2018-02-24T03:38:48.105Z,16.77
2018-02-24T03:41:16.066Z,19.65
2018-02-24T03:43:44.174Z,22.37
2018-02-24T03:46:15.931Z,17.40
2018-02-24T03:48:43.934Z,21.77
2018-02-24T03:51:11.896Z,17.60
2018-02-24T03:53:39.868Z,18.37
2018-02-24T03:56:07.771Z,16.65
2018-02-24T03:58:35.779Z,23.98
2018-02-24T04:01:03.737Z,17.25
2018-02-24T04:03:33.919Z,16.15
2018-02-24T04:06:01.944Z,18.98
2018-02-24T04:08:29.929Z,21.95
2018-02-24T04:10:58.627Z,16.33
2018-02-24T04:13:26.578Z,17.67
2018-02-24T04:15:55.237Z,23.85
2018-02-24T04:18:23.210Z,18.05
2018-02-24T04:20:51.127Z,16.75
2018-02-24T04:23:19.100Z,17.95
2018-02-24T04:25:47.006Z,22.20
2018-02-24T04:28:14.971Z,19.95
2018-02-24T04:30:42.889Z,22.40
2018-02-24T04:33:12.866Z,15.35
2018-02-24T04:35:40.796Z,17.05
2018-02-24T04:38:08.739Z,17.40
2018-02-24T04:40:36.696Z,19.75
2018-02-24T04:43:04.681Z,18.05
2018-02-24T04:45:32.583Z,17.80
2018-02-24T04:48:00.530Z,18.25
2018-02-24T04:50:28.442Z,18.52
2018-02-24T04:52:56.376Z,21.52
2018-02-24T04:55:24.264Z,16.50
2018-02-24T04:57:52.168Z,31.33
2018-02-24T05:00:20.123Z,16.35
2018-02-24T05:02:48.121Z,22.83
2018-02-24T05:05:16.070Z,21.27
2018-02-24T05:07:43.951Z,18.95
2018-02-24T05:10:11.920Z,25.20
2018-02-24T05:12:39.800Z,23.38
2018-02-24T05:15:07.743Z,19.73
2018-02-24T05:17:35.623Z,17.73
2018-02-24T05:20:03.653Z,18.80
2018-02-24T05:22:31.541Z,22.52
2018-02-24T05:24:59.488Z,18.90
2018-02-24T05:27:27.420Z,16.55
2018-02-24T05:29:55.369Z,20.85
2018-02-24T05:32:23.493Z,19.27
2018-02-24T05:34:51.445Z,18.98
2018-02-24T05:37:19.345Z,20.77
2018-02-24T05:39:47.289Z,19.00
2018-02-24T05:42:15.193Z,20.05
2018-02-24T05:44:43.133Z,19.67
2018-02-24T05:47:11.033Z,23.60
2018-02-24T05:49:38.992Z,19.87
2018-02-24T05:52:06.936Z,19.90
2018-02-24T05:54:35.870Z,23.33
2018-02-24T05:57:03.765Z,20.10
2018-02-24T05:59:31.713Z,20.42
2018-02-24T06:01:59.681Z,17.98
2018-02-24T06:04:31.072Z,21.10
2018-02-24T06:07:04.324Z,25.15
2018-02-24T06:09:35.204Z,21.15
2018-02-24T06:12:06.684Z,21.35
2018-02-24T06:14:39.074Z,22.20
2018-02-24T06:17:10.218Z,20.02
2018-02-24T06:19:40.365Z,19.17
2018-02-24T06:22:11.513Z,22.17
2018-02-24T06:24:43.668Z,17.00
2018-02-24T06:27:15.014Z,23.85
2018-02-24T06:29:46.859Z,17.90
2018-02-24T06:32:18.524Z,20.27
2018-02-24T06:34:48.431Z,17.55
2018-02-24T06:37:19.214Z,15.95
2018-02-24T06:39:51.636Z,21.45
2018-02-24T06:42:22.842Z,19.20
2018-02-24T06:44:50.991Z,18.77
2018-02-24T06:47:18.887Z,19.23
2018-02-24T06:49:46.847Z,19.87
2018-02-24T06:52:14.725Z,17.50
2018-02-24T06:54:42.736Z,18.17
2018-02-24T06:57:10.615Z,21.40
2018-02-24T06:59:38.603Z,17.08
2018-02-24T07:02:06.484Z,16.67
2018-02-24T07:04:34.426Z,17.30
2018-02-24T07:07:02.310Z,25.90
2018-02-24T07:09:30.264Z,81.35
2018-02-24T07:11:58.179Z,46.17
2018-02-24T07:14:26.121Z,55.95
2018-02-24T07:16:54.003Z,63.00
2018-02-24T07:19:21.948Z,80.47
2018-02-24T07:21:49.920Z,77.40
2018-02-24T07:24:21.442Z,67.30
2018-02-24T07:26:52.752Z,55.20
2018-02-24T07:29:24.897Z,26.90
2018-02-24T07:31:57.241Z,13.52
2018-02-24T07:34:28.817Z,15.95
2018-02-24T07:37:00.292Z,20.40
2018-02-24T07:39:31.554Z,17.40
2018-02-24T07:42:02.548Z,19.45
2018-02-24T07:44:30.688Z,18.87
2018-02-24T07:46:58.570Z,16.92
2018-02-24T07:49:26.510Z,19.77
2018-02-24T07:51:54.388Z,19.17
2018-02-24T07:54:22.314Z,19.10
2018-02-24T07:56:50.227Z,24.15
2018-02-24T07:59:18.158Z,19.90
2018-02-24T08:01:46.029Z,25.75
2018-02-24T08:04:13.953Z,29.02
2018-02-24T08:06:41.833Z,26.77
2018-02-24T08:09:09.748Z,21.45
2018-02-24T08:11:39.177Z,20.92
2018-02-24T08:14:08.142Z,18.23
2018-02-24T08:16:36.052Z,18.85
2018-02-24T08:19:03.983Z,30.05
2018-02-24T08:21:33.518Z,23.50
2018-02-24T08:24:03.662Z,15.07
2018-02-24T08:26:31.532Z,24.52
2018-02-24T08:28:59.419Z,28.67
2018-02-24T08:31:29.442Z,18.27
2018-02-24T08:33:57.361Z,20.65
2018-02-24T08:36:25.292Z,17.00
2018-02-24T08:38:53.190Z,21.42
2018-02-24T08:41:21.917Z,18.02
2018-02-24T08:43:51.998Z,16.08
2018-02-24T08:46:20.707Z,23.00
2018-02-24T08:48:48.634Z,30.60
2018-02-24T08:51:16.590Z,16.83
2018-02-24T08:53:44.470Z,19.90
2018-02-24T08:56:12.417Z,20.35
2018-02-24T08:58:40.304Z,29.63
2018-02-24T09:01:08.248Z,21.23
2018-02-24T09:03:36.146Z,25.17
2018-02-24T09:06:04.184Z,20.30
2018-02-24T09:08:32.121Z,14.35
2018-02-24T09:11:00.814Z,20.15
2018-02-24T09:13:28.847Z,16.45
2018-02-24T09:15:56.788Z,24.60
2018-02-24T09:18:24.672Z,20.30
2018-02-24T09:20:52.620Z,20.60
2018-02-24T09:23:20.501Z,18.80
2018-02-24T09:25:48.437Z,23.20
2018-02-24T09:28:16.310Z,22.95
2018-02-24T09:30:44.235Z,18.42
2018-02-24T09:33:12.186Z,18.45
2018-02-24T09:35:40.086Z,20.48
2018-02-24T09:38:08.195Z,26.12
2018-02-24T09:40:36.084Z,22.08
2018-02-24T09:43:04.344Z,16.55
2018-02-24T09:45:32.267Z,21.25
2018-02-24T09:48:01.435Z,22.10
2018-02-24T09:50:29.317Z,26.53
2018-02-24T09:52:57.276Z,20.70
2018-02-24T09:55:25.169Z,19.73
2018-02-24T09:57:53.054Z,30.90
2018-02-24T10:00:21.022Z,20.53
2018-02-24T10:02:49.680Z,25.67
2018-02-24T10:05:17.690Z,19.67
2018-02-24T10:07:45.604Z,16.33
2018-02-24T10:10:13.599Z,15.98
2018-02-24T10:12:41.675Z,14.60
2018-02-24T10:15:10.282Z,15.10
2018-02-24T10:17:39.155Z,12.87
2018-02-24T10:20:07.096Z,12.50
2018-02-24T10:22:35.041Z,11.73
2018-02-24T10:25:03.009Z,15.18
2018-02-24T10:27:30.883Z,12.60
2018-02-24T10:29:58.907Z,15.60
2018-02-24T10:32:26.788Z,13.07
2018-02-24T10:34:54.670Z,14.23
2018-02-24T10:37:22.608Z,16.23
2018-02-24T10:39:50.487Z,13.10
2018-02-24T10:42:19.284Z,12.05
2018-02-24T10:44:47.179Z,13.35
2018-02-24T10:47:15.127Z,10.93
2018-02-24T10:49:43.010Z,18.50
2018-02-24T10:52:10.986Z,13.10
2018-02-24T10:54:38.867Z,12.00
2018-02-24T10:57:06.793Z,14.50
2018-02-24T10:59:34.729Z,14.18
2018-02-24T11:02:02.668Z,11.25
2018-02-24T11:04:36.660Z,13.02
2018-02-24T11:07:04.665Z,13.02
2018-02-24T11:09:32.559Z,13.98
2018-02-24T11:12:00.519Z,12.37
2018-02-24T11:14:28.399Z,14.80
2018-02-24T11:16:56.283Z,15.20
2018-02-24T11:19:24.204Z,15.83
2018-02-24T11:21:52.101Z,11.60
2018-02-24T11:24:20.055Z,15.07
2018-02-24T11:26:47.958Z,15.87
2018-02-24T11:29:15.889Z,12.40
2018-02-24T11:31:43.793Z,15.37
2018-02-24T11:34:11.805Z,15.50
2018-02-24T11:36:39.672Z,17.67
2018-02-24T11:39:07.608Z,17.63
2018-02-24T11:41:35.509Z,15.97
2018-02-24T11:44:03.497Z,13.83
2018-02-24T11:46:31.414Z,11.83
2018-02-24T11:48:59.295Z,18.83
2018-02-24T11:51:27.997Z,13.27
2018-02-24T11:53:55.872Z,14.85
2018-02-24T11:56:23.798Z,12.90
2018-02-24T11:58:51.697Z,15.80
2018-02-24T12:01:19.647Z,16.12
2018-02-24T12:03:47.704Z,14.63
2018-02-24T12:06:15.660Z,12.57
2018-02-24T12:08:43.597Z,11.77
2018-02-24T12:11:11.558Z,14.63
2018-02-24T12:13:39.454Z,18.33
2018-02-24T12:16:07.366Z,12.80
2018-02-24T12:18:35.297Z,12.82
2018-02-24T12:21:03.175Z,13.60
2018-02-24T12:23:31.109Z,12.23
2018-02-24T12:25:59.769Z,11.75
2018-02-24T12:28:29.280Z,11.80
2018-02-24T12:30:58.275Z,12.52
2018-02-24T12:33:26.810Z,8.93
2018-02-24T12:35:55.273Z,11.20
2018-02-24T12:38:23.796Z,11.40
2018-02-24T12:40:52.164Z,7.80
2018-02-24T12:43:20.892Z,9.93
2018-02-24T12:45:49.612Z,9.75
2018-02-24T12:48:17.490Z,10.20
2018-02-24T12:50:45.433Z,11.65
2018-02-24T12:53:13.427Z,10.82
2018-02-24T12:55:41.366Z,10.95
2018-02-24T12:58:09.252Z,12.00
2018-02-24T13:00:37.200Z,11.77
2018-02-24T13:03:05.125Z,11.40
2018-02-24T13:05:33.052Z,11.30
2018-02-24T13:08:00.960Z,13.05
2018-02-24T13:10:28.906Z,13.32
2018-02-24T13:12:56.813Z,12.05
2018-02-24T13:15:24.755Z,11.63
2018-02-24T13:17:52.627Z,11.68
2018-02-24T13:20:20.580Z,10.75
2018-02-24T13:22:48.531Z,11.48
2018-02-24T13:25:16.502Z,14.27
2018-02-24T13:27:44.438Z,11.50
2018-02-24T13:30:12.339Z,10.65
2018-02-24T13:32:44.207Z,13.40
2018-02-24T13:35:12.094Z,10.23
2018-02-24T13:37:40.064Z,14.30
2018-02-24T13:40:07.922Z,9.95
2018-02-24T13:42:35.869Z,12.40
2018-02-24T13:45:03.792Z,8.35
2018-02-24T13:47:31.890Z,10.13
2018-02-24T13:49:59.785Z,12.82
2018-02-24T13:52:27.713Z,8.40
2018-02-24T13:54:55.584Z,10.30
2018-02-24T13:57:23.503Z,9.40
2018-02-24T13:59:51.368Z,8.10
2018-02-24T14:02:21.379Z,8.95
2018-02-24T14:04:49.259Z,8.30
2018-02-24T14:07:17.166Z,10.70
2018-02-24T14:09:45.052Z,9.63
2018-02-24T14:12:13.014Z,9.60
2018-02-24T14:14:40.926Z,7.03
2018-02-24T14:17:08.850Z,8.15
2018-02-24T14:19:36.705Z,8.55
2018-02-24T14:22:04.629Z,8.75
2018-02-24T14:24:32.763Z,6.72
2018-02-24T14:27:00.875Z,7.62
2018-02-24T14:29:28.769Z,8.82
2018-02-24T14:31:56.692Z,9.80
2018-02-24T14:34:25.397Z,7.90
2018-02-24T14:36:53.338Z,10.70
2018-02-24T14:39:21.212Z,8.55
2018-02-24T14:41:49.135Z,8.30
2018-02-24T14:44:17.032Z,9.40
2018-02-24T14:46:44.976Z,10.82
2018-02-24T14:49:13.174Z,10.10
2018-02-24T14:51:40.836Z,10.90
2018-02-24T14:54:10.864Z,7.62
2018-02-24T14:56:38.781Z,7.72
2018-02-24T14:59:08.792Z,8.13
2018-02-24T15:01:36.711Z,6.97
2018-02-24T15:04:04.603Z,7.95
2018-02-24T15:06:33.353Z,11.32
2018-02-24T15:09:01.290Z,7.82
2018-02-24T15:11:29.234Z,9.30
2018-02-24T15:13:57.905Z,8.93
2018-02-24T15:16:26.255Z,9.52
2018-02-24T15:18:54.150Z,9.30
2018-02-24T15:21:22.126Z,10.25
2018-02-24T15:23:51.020Z,10.20
2018-02-24T15:26:19.737Z,10.98
2018-02-24T15:28:48.390Z,11.63
2018-02-24T15:31:18.864Z,11.38
2018-02-24T15:33:46.878Z,9.10
2018-02-24T15:36:14.858Z,9.82
2018-02-24T15:38:42.778Z,12.52
2018-02-24T15:41:10.741Z,11.10
2018-02-24T15:43:38.620Z,9.38
2018-02-24T15:46:06.559Z,9.23
2018-02-24T15:48:35.235Z,8.75
2018-02-24T15:51:03.148Z,10.18
2018-02-24T15:53:33.259Z,11.00
2018-02-24T15:56:01.207Z,10.30
2018-02-24T15:58:29.069Z,13.18
2018-02-24T16:00:58.014Z,10.60
2018-02-24T16:03:25.952Z,10.23
2018-02-24T16:05:53.821Z,9.00
2018-02-24T16:08:21.761Z,9.48
2018-02-24T16:10:49.627Z,10.30
2018-02-24T16:13:17.613Z,7.75
2018-02-24T16:15:45.491Z,7.70
2018-02-24T16:18:13.466Z,9.20
2018-02-24T16:20:41.342Z,7.47
2018-02-24T16:23:13.226Z,8.73
2018-02-24T16:25:41.085Z,8.98
2018-02-24T16:28:09.074Z,10.35
2018-02-24T16:30:36.948Z,9.15
2018-02-24T16:33:04.926Z,8.27
2018-02-24T16:35:32.823Z,6.95
2018-02-24T16:38:00.747Z,9.30
2018-02-24T16:40:28.642Z,10.68
2018-02-24T16:42:56.576Z,11.05
2018-02-24T16:45:24.446Z,10.85
2018-02-24T16:47:52.424Z,7.80
2018-02-24T16:50:20.317Z,7.50
2018-02-24T16:52:50.384Z,11.38
2018-02-24T16:55:18.257Z,8.13
2018-02-24T16:57:46.164Z,10.90
2018-02-24T17:00:15.019Z,8.85
2018-02-24T17:02:43.144Z,11.93
2018-02-24T17:05:11.020Z,8.05
2018-02-24T17:07:39.928Z,11.18
2018-02-24T17:10:08.563Z,9.25
2018-02-24T17:12:36.487Z,8.82
2018-02-24T17:15:04.383Z,10.40
2018-02-24T17:17:32.301Z,8.05
2018-02-24T17:20:00.176Z,8.95
2018-02-24T17:22:28.158Z,11.82
2018-02-24T17:24:56.800Z,9.23
2018-02-24T17:27:24.708Z,9.30
2018-02-24T17:29:53.354Z,9.68
2018-02-24T17:32:21.277Z,7.85
2018-02-24T17:34:49.168Z,6.80
2018-02-24T17:37:17.138Z,7.97
2018-02-24T17:39:45.023Z,6.40
2018-02-24T17:42:13.093Z,7.45
2018-02-24T17:44:41.116Z,8.10
2018-02-24T17:47:12.068Z,7.32
2018-02-24T17:49:40.000Z,6.47
2018-02-24T17:52:07.940Z,8.25
2018-02-24T17:54:35.852Z,6.68
2018-02-24T17:57:04.543Z,7.90
2018-02-24T17:59:37.207Z,6.20
2018-02-24T18:02:08.364Z,6.55
2018-02-24T18:04:40.686Z,5.07
2018-02-24T18:07:12.227Z,8.90
2018-02-24T18:09:40.399Z,13.25
2018-02-24T18:12:08.392Z,9.70
2018-02-24T18:14:36.314Z,7.80
2018-02-24T18:17:04.259Z,6.95
2018-02-24T18:19:32.148Z,7.87
2018-02-24T18:22:00.941Z,7.55
2018-02-24T18:24:29.589Z,7.28
2018-02-24T18:26:57.595Z,9.70
2018-02-24T18:29:26.254Z,6.47
2018-02-24T18:31:54.212Z,6.82
2018-02-24T18:34:22.218Z,11.35
2018-02-24T18:36:50.968Z,21.90
2018-02-24T18:39:18.909Z,7.55
2018-02-24T18:41:46.834Z,5.90
2018-02-24T18:44:14.765Z,9.98
2018-02-24T18:46:42.697Z,6.65
2018-02-24T18:49:10.668Z,8.48
2018-02-24T18:51:38.594Z,5.43
2018-02-24T18:54:06.521Z,5.62
2018-02-24T18:56:34.397Z,4.65
2018-02-24T18:59:02.314Z,4.78
2018-02-24T19:01:30.181Z,6.32
2018-02-24T19:03:58.192Z,3.90
2018-02-24T19:06:26.083Z,5.80
2018-02-24T19:08:54.020Z,4.15
2018-02-24T19:11:23.796Z,3.70
2018-02-24T19:13:51.893Z,2.90
2018-02-24T19:16:19.774Z,6.20
2018-02-24T19:18:48.467Z,4.00
2018-02-24T19:21:16.402Z,4.80
2018-02-24T19:23:44.349Z,1.83
2018-02-24T19:26:12.244Z,2.97
2018-02-24T19:28:40.208Z,2.15
2018-02-24T19:31:08.094Z,2.17
2018-02-24T19:33:37.013Z,4.28
2018-02-24T19:36:04.929Z,3.12
2018-02-24T19:38:32.879Z,5.30
2018-02-24T19:41:00.819Z,1.92
2018-02-24T19:43:28.735Z,4.12
2018-02-24T19:45:56.628Z,3.65
2018-02-24T19:48:27.462Z,3.25
2018-02-24T19:50:56.405Z,2.37
2018-02-24T19:53:24.356Z,3.67
2018-02-24T19:55:52.255Z,4.07
2018-02-24T19:58:20.186Z,3.62
2018-02-24T20:00:48.068Z,1.35
2018-02-24T20:03:16.862Z,1.67
2018-02-24T20:05:44.730Z,2.92
2018-02-24T20:08:12.656Z,3.85
2018-02-24T20:10:40.649Z,4.82
2018-02-24T20:13:08.582Z,2.78
2018-02-24T20:15:37.226Z,3.15
2018-02-24T20:18:05.173Z,2.80
2018-02-24T20:20:33.057Z,2.53
2018-02-24T20:23:01.005Z,4.30
2018-02-24T20:25:28.955Z,4.10
2018-02-24T20:27:56.905Z,3.65
2018-02-24T20:30:24.845Z,1.98
2018-02-24T20:32:52.791Z,1.83
2018-02-24T20:35:22.488Z,5.05
2018-02-24T20:37:53.326Z,1.85
2018-02-24T20:40:24.129Z,2.33
2018-02-24T20:42:54.040Z,3.58
2018-02-24T20:45:21.909Z,5.03
2018-02-24T20:47:49.844Z,2.17
2018-02-24T20:50:17.729Z,2.55
2018-02-24T20:52:46.782Z,3.20
2018-02-24T20:55:14.759Z,1.45
2018-02-24T20:57:42.740Z,2.55
2018-02-24T21:00:10.702Z,1.83
2018-02-24T21:02:38.652Z,4.20
2018-02-24T21:05:06.533Z,9.23
2018-02-24T21:07:35.776Z,1.90
2018-02-24T21:10:05.960Z,4.05
2018-02-24T21:12:34.020Z,1.67
2018-02-24T21:15:01.917Z,2.90
2018-02-24T21:17:29.860Z,2.60
2018-02-24T21:19:57.989Z,2.47
2018-02-24T21:22:26.080Z,2.90
2018-02-24T21:24:53.971Z,3.87
2018-02-24T21:27:22.628Z,2.28
2018-02-24T21:29:50.550Z,1.70
2018-02-24T21:32:18.424Z,2.90
2018-02-24T21:34:46.476Z,1.83
2018-02-24T21:37:14.354Z,2.80
2018-02-24T21:39:42.297Z,3.20
2018-02-24T21:42:10.184Z,3.30
2018-02-24T21:44:38.906Z,13.80
2018-02-24T21:47:07.431Z,1.75
2018-02-24T21:49:35.355Z,4.57
2018-02-24T21:52:03.329Z,7.57
2018-02-24T21:54:31.286Z,4.53
2018-02-24T21:56:59.230Z,6.68
2018-02-24T21:59:27.953Z,4.50
2018-02-24T22:01:55.907Z,3.60
2018-02-24T22:04:27.845Z,4.55
2018-02-24T22:06:55.721Z,4.00
2018-02-24T22:09:23.673Z,3.50
2018-02-24T22:11:51.554Z,4.07
2018-02-24T22:14:20.368Z,4.30
2018-02-24T22:16:48.740Z,3.67
2018-02-24T22:19:17.553Z,3.00
2018-02-24T22:21:45.440Z,5.28
2018-02-24T22:24:13.763Z,2.12
2018-02-24T22:26:42.820Z,2.22
2018-02-24T22:29:10.782Z,3.05
2018-02-24T22:31:38.663Z,2.37
2018-02-24T22:34:06.752Z,3.15
2018-02-24T22:36:34.649Z,2.62
2018-02-24T22:39:02.572Z,3.92
2018-02-24T22:41:30.486Z,3.15
2018-02-24T22:43:58.478Z,3.22
2018-02-24T22:46:26.373Z,5.25
2018-02-24T22:48:59.951Z,2.90
2018-02-24T22:51:27.885Z,2.50
2018-02-24T22:53:55.810Z,3.90
2018-02-24T22:56:23.710Z,3.20
2018-02-24T22:58:51.667Z,2.33
2018-02-24T23:01:19.596Z,2.30
2018-02-24T23:03:47.610Z,2.80
2018-02-24T23:06:15.742Z,2.47
2018-02-24T23:08:43.728Z,3.70
2018-02-24T23:11:11.630Z,2.67
2018-02-24T23:13:39.624Z,3.00
2018-02-24T23:16:07.513Z,5.40
2018-02-24T23:18:35.508Z,3.50
2018-02-24T23:21:03.434Z,3.85
2018-02-24T23:23:31.538Z,4.85
2018-02-24T23:25:59.491Z,3.87
2018-02-24T23:28:27.545Z,3.80
2018-02-24T23:30:55.498Z,3.15
2018-02-24T23:33:23.434Z,2.87
2018-02-24T23:35:51.328Z,2.42
2018-02-24T23:38:19.260Z,3.10
2018-02-24T23:40:47.202Z,4.35
2018-02-24T23:43:15.138Z,5.87
2018-02-24T23:45:43.458Z,5.40
2018-02-24T23:48:11.415Z,6.12
2018-02-24T23:50:39.350Z,3.97
2018-02-24T23:53:07.900Z,5.37
2018-02-24T23:55:36.021Z,6.45
2018-02-24T23:58:03.904Z,3.55
